Grand Rapids, Michigan
Current Conditions -  °F | °C
As of 4:23 PM on Thursday 18 Dec 2014 (Local Time) from KGRR Reporting Station
Light Snow Light Snow  
Wind Chill: -5°   Ceiling: 1400
Heat Index: -1°   Visibility: 4mi
Dew Point: -2°   Wind: 8mph
Humidity: 89%   Direction: 240°WSW
Pressure: 30.17"   Gusts: NA
Location:  42.97°N, 85.67°W
Report Text: KGRR 182123Z 24007KT 4SM -FZDZSN BR SCT009 OVC014 M01/M02 A3017 RMK AO2 FZDZB22 P0000 I1000 T10061022
Loading
Personal Weather Stations






























Interactive Weather Map New forecast layout! Learn more

10-Day Weather Forecast

Advertisements
Track Severe Weather on mobile